Data Viewer
| City | State | Eastern Time | Source | Temp | DewPt | RH | BP | 5 Min Precip | Wind Speed | Wind Dir | 5 Min Wind Max | 5 Min Wind Max Dir |
|---|---|---|---|---|---|---|---|---|---|---|---|---|
| Nottingham | PA | 2026-05-02 23:20 | DEOS | 47 | 30 | 51 | 29.94 | 0.00 | 2 | NW | 6 | |
| Nottingham | PA | 2026-05-03 15:10 | DEOS | 57 | 24 | 28 | 29.96 | 0.00 | 7 | WNW | 19 | |
| Nottingham | PA | 2026-05-03 15:40 | DEOS | 55 | 23 | 29 | 29.95 | 0.00 | 5 | WNW | 12 | |
| Nottingham | PA | 2026-05-03 15:35 | DEOS | 55 | 24 | 29 | 29.95 | 0.00 | 4 | WNW | 15 | |
| Nottingham | PA | 2026-05-03 15:30 | DEOS | 55 | 22 | 28 | 29.96 | 0.00 | 4 | NW | 10 | |
| Nottingham | PA | 2026-05-03 15:25 | DEOS | 56 | 24 | 29 | 29.95 | 0.00 | 3 | WNW | 8 | |
| Nottingham | PA | 2026-05-03 15:20 | DEOS | 56 | 23 | 28 | 29.96 | 0.00 | 6 | NW | 15 | |
| Nottingham | PA | 2026-05-03 15:15 | DEOS | 56 | 23 | 28 | 29.96 | 0.00 | 6 | WNW | 13 | |
| Nottingham | PA | 2026-05-03 15:05 | DEOS | 56 | 24 | 28 | 29.96 | 0.00 | 5 | WNW | 12 | |
| Nottingham | PA | 2026-05-03 15:50 | DEOS | 57 | 23 | 27 | 29.95 | 0.00 | 4 | NW | 14 | |
| Nottingham | PA | 2026-05-03 15:00 | DEOS | 56 | 23 | 28 | 29.96 | 0.00 | 6 | NW | 14 | |
| Nottingham | PA | 2026-05-03 14:55 | DEOS | 55 | 23 | 28 | 29.97 | 0.00 | 5 | WNW | 11 | |
| Nottingham | PA | 2026-05-03 14:50 | DEOS | 56 | 24 | 29 | 29.98 | 0.00 | 6 | NNW | 15 | |
| Nottingham | PA | 2026-05-03 14:45 | DEOS | 56 | 23 | 28 | 29.97 | 0.00 | 6 | WNW | 15 | |
| Nottingham | PA | 2026-05-03 14:40 | DEOS | 56 | 24 | 28 | 29.97 | 0.00 | 7 | NW | 15 | |
| Nottingham | PA | 2026-05-03 14:35 | DEOS | 56 | 23 | 28 | 29.98 | 0.00 | 6 | WNW | 15 | |
| Nottingham | PA | 2026-05-03 15:45 | DEOS | 56 | 24 | 28 | 29.96 | 0.00 | 4 | NW | 10 | |
| Nottingham | PA | 2026-05-03 15:55 | DEOS | 57 | 24 | 28 | 29.96 | 0.00 | 4 | NNW | 14 | |
| Nottingham | PA | 2026-05-03 14:25 | DEOS | 55 | 23 | 28 | 29.97 | 0.00 | 6 | WNW | 16 | |
| Nottingham | PA | 2026-05-03 16:40 | DEOS | 58 | 22 | 25 | 29.94 | 0.00 | 6 | WNW | 15 | |
| Nottingham | PA | 2026-05-03 17:10 | DEOS | 58 | 22 | 25 | 29.94 | 0.00 | 4 | NW | 8 | |
| Nottingham | PA | 2026-05-03 17:05 | DEOS | 58 | 23 | 25 | 29.93 | 0.00 | 5 | NW | 15 | |
| Nottingham | PA | 2026-05-03 17:00 | DEOS | 58 | 23 | 26 | 29.94 | 0.00 | 6 | WNW | 11 | |
| Nottingham | PA | 2026-05-03 16:55 | DEOS | 58 | 22 | 25 | 29.94 | 0.00 | 5 | NNW | 11 | |
| Nottingham | PA | 2026-05-03 16:50 | DEOS | 58 | 22 | 25 | 29.94 | 0.00 | 7 | W | 11 | |
| Nottingham | PA | 2026-05-03 16:45 | DEOS | 58 | 23 | 25 | 29.94 | 0.00 | 4 | WNW | 9 | |
| Nottingham | PA | 2026-05-03 16:35 | DEOS | 58 | 23 | 25 | 29.95 | 0.00 | 5 | NW | 14 | |
| Nottingham | PA | 2026-05-03 16:00 | DEOS | 57 | 23 | 27 | 29.95 | 0.00 | 5 | N | 9 | |
| Nottingham | PA | 2026-05-03 16:30 | DEOS | 58 | 22 | 25 | 29.94 | 0.00 | 7 | WNW | 13 | |
| Nottingham | PA | 2026-05-03 16:25 | DEOS | 57 | 22 | 26 | 29.94 | 0.00 | 6 | NW | 17 | |
| Nottingham | PA | 2026-05-03 16:20 | DEOS | 57 | 22 | 26 | 29.94 | 0.00 | 5 | NW | 11 | |
| Nottingham | PA | 2026-05-03 16:15 | DEOS | 58 | 23 | 26 | 29.95 | 0.00 | 5 | NW | 12 | |
| Nottingham | PA | 2026-05-03 16:10 | DEOS | 58 | 23 | 26 | 29.95 | 0.00 | 6 | WNW | 15 | |
| Nottingham | PA | 2026-05-03 16:05 | DEOS | 57 | 23 | 27 | 29.96 | 0.00 | 5 | NW | 14 | |
| Nottingham | PA | 2026-05-03 14:30 | DEOS | 56 | 23 | 28 | 29.98 | 0.00 | 6 | NW | 16 | |
| Nottingham | PA | 2026-05-03 14:20 | DEOS | 55 | 22 | 28 | 29.97 | 0.00 | 6 | WNW | 12 | |
| Nottingham | PA | 2026-05-03 17:20 | DEOS | 58 | 22 | 25 | 29.94 | 0.00 | 3 | NNW | 8 | |
| Nottingham | PA | 2026-05-03 12:10 | DEOS | 50 | 22 | 33 | 30.00 | 0.00 | 5 | NW | 14 | |
| Nottingham | PA | 2026-05-03 12:40 | DEOS | 52 | 22 | 30 | 29.98 | 0.00 | 4 | WNW | 14 | |
| Nottingham | PA | 2026-05-03 12:35 | DEOS | 51 | 20 | 29 | 29.99 | 0.00 | 6 | NW | 13 | |
| Nottingham | PA | 2026-05-03 12:30 | DEOS | 52 | 21 | 29 | 30.00 | 0.00 | 8 | WNW | 18 | |
| Nottingham | PA | 2026-05-03 12:25 | DEOS | 52 | 22 | 31 | 29.98 | 0.00 | 2 | NNW | 9 | |
| Nottingham | PA | 2026-05-03 12:20 | DEOS | 51 | 21 | 30 | 29.98 | 0.00 | 6 | WNW | 18 | |
| Nottingham | PA | 2026-05-03 12:15 | DEOS | 51 | 22 | 32 | 30.00 | 0.00 | 6 | WNW | 15 | |
| Nottingham | PA | 2026-05-03 12:05 | DEOS | 51 | 22 | 32 | 29.99 | 0.00 | 5 | NW | 10 | |
| Nottingham | PA | 2026-05-03 12:50 | DEOS | 53 | 22 | 29 | 29.99 | 0.00 | 6 | WNW | 16 | |
| Nottingham | PA | 2026-05-03 12:00 | DEOS | 51 | 22 | 32 | 29.99 | 0.00 | 6 | NW | 15 | |
| Nottingham | PA | 2026-05-03 11:55 | DEOS | 50 | 23 | 33 | 29.99 | 0.00 | 4 | NW | 11 | |
| Nottingham | PA | 2026-05-03 11:50 | DEOS | 50 | 23 | 35 | 30.01 | 0.00 | 6 | WNW | 22 | |
| Nottingham | PA | 2026-05-03 11:45 | DEOS | 49 | 23 | 35 | 29.99 | 0.00 | 4 | WNW | 17 | |
| Nottingham | PA | 2026-05-03 11:40 | DEOS | 49 | 22 | 34 | 29.99 | 0.00 | 4 | NW | 13 | |
| Nottingham | PA | 2026-05-03 11:35 | DEOS | 49 | 22 | 34 | 29.99 | 0.00 | 5 | NW | 12 | |
| Nottingham | PA | 2026-05-03 12:45 | DEOS | 52 | 21 | 29 | 29.99 | 0.00 | 4 | NNW | 10 | |
| Nottingham | PA | 2026-05-03 12:55 | DEOS | 52 | 20 | 28 | 29.98 | 0.00 | 5 | WNW | 17 | |
| Nottingham | PA | 2026-05-03 14:15 | DEOS | 55 | 22 | 28 | 29.97 | 0.00 | 6 | WNW | 15 | |
| Nottingham | PA | 2026-05-03 13:40 | DEOS | 54 | 22 | 28 | 29.98 | 0.00 | 7 | WNW | 14 | |
| Nottingham | PA | 2026-05-03 14:10 | DEOS | 55 | 22 | 28 | 29.98 | 0.00 | 6 | NW | 12 | |
| Nottingham | PA | 2026-05-03 14:05 | DEOS | 54 | 22 | 29 | 29.97 | 0.00 | 6 | NW | 16 | |
| Nottingham | PA | 2026-05-03 14:00 | DEOS | 54 | 22 | 29 | 29.97 | 0.00 | 5 | NNW | 11 | |
| Nottingham | PA | 2026-05-03 13:55 | DEOS | 55 | 22 | 29 | 29.97 | 0.00 | 5 | WNW | 11 | |
| Nottingham | PA | 2026-05-03 13:50 | DEOS | 54 | 22 | 29 | 29.98 | 0.00 | 6 | WNW | 15 | |
| Nottingham | PA | 2026-05-03 13:45 | DEOS | 54 | 22 | 28 | 29.97 | 0.00 | 6 | NW | 13 | |
| Nottingham | PA | 2026-05-03 13:35 | DEOS | 53 | 21 | 28 | 29.99 | 0.00 | 6 | NW | 16 | |
| Nottingham | PA | 2026-05-03 13:00 | DEOS | 53 | 22 | 30 | 29.98 | 0.00 | 5 | NW | 15 | |
| Nottingham | PA | 2026-05-03 13:30 | DEOS | 54 | 22 | 28 | 29.97 | 0.00 | 6 | NW | 13 | |
| Nottingham | PA | 2026-05-03 13:25 | DEOS | 53 | 22 | 29 | 29.99 | 0.00 | 5 | N | 13 | |
| Nottingham | PA | 2026-05-03 13:20 | DEOS | 53 | 21 | 28 | 29.99 | 0.00 | 6 | NW | 13 | |
| Nottingham | PA | 2026-05-03 13:15 | DEOS | 53 | 21 | 29 | 29.99 | 0.00 | 6 | NW | 13 | |
| Nottingham | PA | 2026-05-03 13:10 | DEOS | 52 | 20 | 28 | 29.98 | 0.00 | 6 | NNW | 13 | |
| Nottingham | PA | 2026-05-03 13:05 | DEOS | 53 | 20 | 27 | 29.99 | 0.00 | 7 | NW | 18 | |
| Nottingham | PA | 2026-05-03 17:15 | DEOS | 58 | 23 | 25 | 29.94 | 0.00 | 4 | NW | 9 | |
| Nottingham | PA | 2026-05-03 17:25 | DEOS | 59 | 24 | 26 | 29.92 | 0.00 | 4 | WNW | 11 | |
| Nottingham | PA | 2026-05-03 11:25 | DEOS | 49 | 22 | 34 | 30.00 | 0.00 | 5 | NW | 13 | |
| Nottingham | PA | 2026-05-03 21:10 | DEOS | 47 | 27 | 47 | 29.95 | 0.00 | 2 | SSE | 2 | |
| Nottingham | PA | 2026-05-03 21:40 | DEOS | 46 | 26 | 45 | 29.98 | 0.00 | 0 | N | 0 | |
| Nottingham | PA | 2026-05-03 21:35 | DEOS | 47 | 26 | 44 | 29.96 | 0.00 | 0 | SSE | 1 | |
| Nottingham | PA | 2026-05-03 21:30 | DEOS | 47 | 26 | 44 | 29.96 | 0.00 | 1 | SSE | 2 | |
| Nottingham | PA | 2026-05-03 21:25 | DEOS | 47 | 26 | 43 | 29.97 | 0.00 | 1 | SSE | 2 | |
| Nottingham | PA | 2026-05-03 21:20 | DEOS | 47 | 26 | 44 | 29.97 | 0.00 | 1 | SSE | 2 | |
| Nottingham | PA | 2026-05-03 21:15 | DEOS | 45 | 26 | 48 | 29.95 | 0.00 | 2 | SE | 2 | |
| Nottingham | PA | 2026-05-03 21:05 | DEOS | 48 | 26 | 43 | 29.95 | 0.00 | 0 | S | 1 | |
| Nottingham | PA | 2026-05-03 21:50 | DEOS | 46 | 27 | 47 | 29.98 | 0.00 | 0 | N | 0 | |
| Nottingham | PA | 2026-05-03 21:00 | DEOS | 48 | 26 | 43 | 29.97 | 0.00 | 0 | N | 0 | |
| Nottingham | PA | 2026-05-03 20:55 | DEOS | 48 | 26 | 41 | 29.95 | 0.00 | 0 | N | 0 | |
| Nottingham | PA | 2026-05-03 20:50 | DEOS | 49 | 26 | 40 | 29.95 | 0.00 | 0 | N | 0 | |
| Nottingham | PA | 2026-05-03 20:45 | DEOS | 50 | 26 | 39 | 29.94 | 0.00 | 0 | N | 0 | |
| Nottingham | PA | 2026-05-03 20:40 | DEOS | 50 | 26 | 38 | 29.94 | 0.00 | 0 | N | 1 | |
| Nottingham | PA | 2026-05-03 20:35 | DEOS | 50 | 26 | 38 | 29.95 | 0.00 | 0 | N | 0 | |
| Nottingham | PA | 2026-05-03 21:45 | DEOS | 46 | 27 | 46 | 29.96 | 0.00 | 0 | N | 0 | |
| Nottingham | PA | 2026-05-03 21:55 | DEOS | 46 | 27 | 48 | 29.99 | 0.00 | 0 | SSE | 1 | |
| Nottingham | PA | 2026-05-03 20:25 | DEOS | 52 | 25 | 34 | 29.94 | 0.00 | 0 | SSW | 1 | |
| Nottingham | PA | 2026-05-03 22:40 | DEOS | 44 | 28 | 53 | 29.97 | 0.00 | 0 | SSE | 1 | |
| Nottingham | PA | 2026-05-03 23:10 | DEOS | 43 | 28 | 55 | 29.98 | 0.00 | 0 | N | 0 | |
| Nottingham | PA | 2026-05-03 23:05 | DEOS | 44 | 28 | 54 | 29.97 | 0.00 | 0 | N | 0 | |
| Nottingham | PA | 2026-05-03 23:00 | DEOS | 43 | 27 | 52 | 29.98 | 0.00 | 0 | SSE | 1 | |
| Nottingham | PA | 2026-05-03 22:55 | DEOS | 43 | 27 | 53 | 29.99 | 0.00 | 0 | SSE | 2 | |
| Nottingham | PA | 2026-05-03 22:50 | DEOS | 42 | 28 | 56 | 29.96 | 0.00 | 0 | SSE | 2 | |
| Nottingham | PA | 2026-05-03 22:45 | DEOS | 43 | 28 | 55 | 29.97 | 0.00 | 1 | SSE | 1 | |
| Nottingham | PA | 2026-05-03 22:35 | DEOS | 44 | 28 | 53 | 29.97 | 0.00 | 0 | N | 0 | |
| Nottingham | PA | 2026-05-03 22:00 | DEOS | 46 | 27 | 48 | 29.97 | 0.00 | 0 | N | 0 | |
| Nottingham | PA | 2026-05-03 22:30 | DEOS | 44 | 27 | 51 | 29.97 | 0.00 | 0 | N | 0 | |
| Nottingham | PA | 2026-05-03 22:25 | DEOS | 44 | 27 | 50 | 29.97 | 0.00 | 0 | N | 0 | |
| Nottingham | PA | 2026-05-03 22:20 | DEOS | 45 | 27 | 50 | 29.97 | 0.00 | 0 | N | 0 | |
| Nottingham | PA | 2026-05-03 22:15 | DEOS | 45 | 27 | 50 | 29.98 | 0.00 | 0 | N | 0 | |
| Nottingham | PA | 2026-05-03 22:10 | DEOS | 46 | 28 | 49 | 29.97 | 0.00 | 0 | N | 0 | |
| Nottingham | PA | 2026-05-03 22:05 | DEOS | 46 | 27 | 48 | 29.99 | 0.00 | 0 | N | 0 | |
| Nottingham | PA | 2026-05-03 20:30 | DEOS | 51 | 25 | 35 | 29.94 | 0.00 | 0 | N | 0 | |
| Nottingham | PA | 2026-05-03 20:20 | DEOS | 53 | 25 | 34 | 29.96 | 0.00 | 0 | S | 1 | |
| Nottingham | PA | 2026-05-03 17:30 | DEOS | 59 | 23 | 25 | 29.92 | 0.00 | 4 | NW | 10 | |
| Nottingham | PA | 2026-05-03 18:10 | DEOS | 59 | 24 | 26 | 29.94 | 0.00 | 4 | WNW | 14 | |
| Nottingham | PA | 2026-05-03 18:40 | DEOS | 58 | 24 | 26 | 29.94 | 0.00 | 4 | NW | 9 | |
| Nottingham | PA | 2026-05-03 18:35 | DEOS | 58 | 24 | 26 | 29.94 | 0.00 | 5 | WNW | 10 | |
| Nottingham | PA | 2026-05-03 18:30 | DEOS | 58 | 23 | 26 | 29.94 | 0.00 | 3 | NW | 7 | |
| Nottingham | PA | 2026-05-03 18:25 | DEOS | 58 | 23 | 25 | 29.94 | 0.00 | 4 | NW | 9 | |
| Nottingham | PA | 2026-05-03 18:20 | DEOS | 59 | 23 | 25 | 29.94 | 0.00 | 4 | NW | 10 | |
| Nottingham | PA | 2026-05-03 18:15 | DEOS | 59 | 24 | 25 | 29.94 | 0.00 | 4 | NW | 9 | |
| Nottingham | PA | 2026-05-03 18:05 | DEOS | 59 | 23 | 25 | 29.93 | 0.00 | 5 | W | 13 | |
| Nottingham | PA | 2026-05-03 18:50 | DEOS | 58 | 24 | 26 | 29.94 | 0.00 | 4 | WNW | 9 | |
| Nottingham | PA | 2026-05-03 18:00 | DEOS | 59 | 24 | 26 | 29.93 | 0.00 | 2 | NW | 7 | |
| Nottingham | PA | 2026-05-03 17:55 | DEOS | 59 | 24 | 26 | 29.93 | 0.00 | 2 | NW | 6 | |
| Nottingham | PA | 2026-05-03 17:50 | DEOS | 59 | 24 | 25 | 29.94 | 0.00 | 4 | WNW | 9 | |
| Nottingham | PA | 2026-05-03 17:45 | DEOS | 58 | 23 | 25 | 29.93 | 0.00 | 5 | WNW | 11 | |
| Nottingham | PA | 2026-05-03 17:40 | DEOS | 59 | 23 | 25 | 29.94 | 0.00 | 5 | W | 9 | |
| Nottingham | PA | 2026-05-03 17:35 | DEOS | 58 | 23 | 25 | 29.93 | 0.00 | 3 | WNW | 8 | |
| Nottingham | PA | 2026-05-03 18:45 | DEOS | 58 | 24 | 27 | 29.94 | 0.00 | 3 | WNW | 7 | |
| Nottingham | PA | 2026-05-03 18:55 | DEOS | 58 | 24 | 26 | 29.94 | 0.00 | 4 | WNW | 13 | |
| Nottingham | PA | 2026-05-03 20:15 | DEOS | 53 | 25 | 33 | 29.94 | 0.00 | 0 | SSW | 2 | |
| Nottingham | PA | 2026-05-03 19:40 | DEOS | 56 | 25 | 30 | 29.94 | 0.00 | 2 | WNW | 6 | |
| Nottingham | PA | 2026-05-03 20:10 | DEOS | 54 | 25 | 32 | 29.96 | 0.00 | 0 | SW | 1 | |
| Nottingham | PA | 2026-05-03 20:05 | DEOS | 54 | 24 | 31 | 29.95 | 0.00 | 1 | SW | 4 | |
| Nottingham | PA | 2026-05-03 20:00 | DEOS | 55 | 25 | 31 | 29.94 | 0.00 | 1 | WNW | 4 | |
| Nottingham | PA | 2026-05-03 19:55 | DEOS | 55 | 25 | 31 | 29.95 | 0.00 | 2 | WNW | 4 | |
| Nottingham | PA | 2026-05-03 19:50 | DEOS | 55 | 25 | 30 | 29.95 | 0.00 | 2 | WNW | 5 | |
| Nottingham | PA | 2026-05-03 19:45 | DEOS | 55 | 25 | 30 | 29.94 | 0.00 | 2 | WNW | 7 | |
| Nottingham | PA | 2026-05-03 19:35 | DEOS | 56 | 25 | 29 | 29.94 | 0.00 | 1 | NW | 4 | |
| Nottingham | PA | 2026-05-03 19:00 | DEOS | 58 | 24 | 27 | 29.93 | 0.00 | 5 | WNW | 11 | |
| Nottingham | PA | 2026-05-03 19:30 | DEOS | 57 | 24 | 28 | 29.94 | 0.00 | 2 | WNW | 7 | |
| Nottingham | PA | 2026-05-03 19:25 | DEOS | 57 | 24 | 28 | 29.94 | 0.00 | 2 | WNW | 5 | |
| Nottingham | PA | 2026-05-03 19:20 | DEOS | 57 | 24 | 27 | 29.94 | 0.00 | 4 | WNW | 11 | |
| Nottingham | PA | 2026-05-03 19:15 | DEOS | 57 | 24 | 27 | 29.94 | 0.00 | 3 | WNW | 10 | |
| Nottingham | PA | 2026-05-03 19:10 | DEOS | 58 | 24 | 27 | 29.94 | 0.00 | 3 | WNW | 7 | |
| Nottingham | PA | 2026-05-03 19:05 | DEOS | 58 | 24 | 27 | 29.94 | 0.00 | 3 | WNW | 9 | |
| Nottingham | PA | 2026-05-03 11:30 | DEOS | 49 | 22 | 34 | 30.01 | 0.00 | 6 | NW | 15 | |
| Nottingham | PA | 2026-05-03 11:20 | DEOS | 49 | 22 | 35 | 30.01 | 0.00 | 6 | NW | 16 | |
| Nottingham | PA | 2026-05-02 23:25 | DEOS | 47 | 30 | 51 | 29.92 | 0.00 | 2 | NW | 7 | |
| Nottingham | PA | 2026-05-03 03:05 | DEOS | 41 | 31 | 67 | 29.91 | 0.00 | 1 | NW | 4 | |
| Nottingham | PA | 2026-05-03 03:35 | DEOS | 40 | 30 | 69 | 29.91 | 0.00 | 2 | WNW | 4 | |
| Nottingham | PA | 2026-05-03 03:30 | DEOS | 40 | 31 | 69 | 29.91 | 0.00 | 2 | NW | 3 | |
| Nottingham | PA | 2026-05-03 03:25 | DEOS | 40 | 31 | 69 | 29.91 | 0.00 | 2 | WNW | 3 | |
| Nottingham | PA | 2026-05-03 03:20 | DEOS | 40 | 31 | 68 | 29.91 | 0.00 | 1 | NW | 3 | |
| Nottingham | PA | 2026-05-03 03:15 | DEOS | 40 | 30 | 68 | 29.91 | 0.00 | 1 | NW | 2 | |
| Nottingham | PA | 2026-05-03 03:10 | DEOS | 41 | 30 | 67 | 29.91 | 0.00 | 1 | W | 2 | |
| Nottingham | PA | 2026-05-03 03:00 | DEOS | 41 | 31 | 67 | 29.91 | 0.00 | 2 | NW | 4 | |
| Nottingham | PA | 2026-05-03 03:45 | DEOS | 39 | 30 | 70 | 29.91 | 0.00 | 1 | WNW | 4 | |
| Nottingham | PA | 2026-05-03 02:55 | DEOS | 41 | 31 | 67 | 29.91 | 0.00 | 2 | NW | 4 | |
| Nottingham | PA | 2026-05-03 02:50 | DEOS | 41 | 31 | 66 | 29.90 | 0.00 | 1 | WNW | 4 | |
| Nottingham | PA | 2026-05-03 02:45 | DEOS | 41 | 31 | 66 | 29.90 | 0.00 | 2 | WNW | 5 | |
| Nottingham | PA | 2026-05-03 02:40 | DEOS | 41 | 31 | 67 | 29.90 | 0.00 | 2 | WNW | 4 | |
| Nottingham | PA | 2026-05-03 02:35 | DEOS | 41 | 31 | 66 | 29.90 | 0.00 | 2 | WNW | 5 | |
| Nottingham | PA | 2026-05-03 02:30 | DEOS | 41 | 31 | 65 | 29.91 | 0.00 | 2 | WNW | 5 | |
| Nottingham | PA | 2026-05-03 03:40 | DEOS | 40 | 30 | 69 | 29.90 | 0.00 | 1 | NW | 4 | |
| Nottingham | PA | 2026-05-03 03:50 | DEOS | 39 | 30 | 69 | 29.91 | 0.00 | 2 | WNW | 5 | |
| Nottingham | PA | 2026-05-03 02:20 | DEOS | 41 | 30 | 65 | 29.91 | 0.00 | 2 | WNW | 4 | |
| Nottingham | PA | 2026-05-03 04:35 | DEOS | 41 | 30 | 63 | 29.91 | 0.00 | 2 | WNW | 6 | |
| Nottingham | PA | 2026-05-03 05:05 | DEOS | 42 | 29 | 61 | 29.92 | 0.00 | 2 | NW | 3 | |
| Nottingham | PA | 2026-05-03 05:00 | DEOS | 42 | 29 | 61 | 29.92 | 0.00 | 2 | NW | 7 | |
| Nottingham | PA | 2026-05-03 04:55 | DEOS | 42 | 29 | 60 | 29.92 | 0.00 | 3 | NW | 7 | |
| Nottingham | PA | 2026-05-03 04:50 | DEOS | 42 | 29 | 61 | 29.92 | 0.00 | 2 | NW | 6 | |
| Nottingham | PA | 2026-05-03 04:45 | DEOS | 42 | 29 | 61 | 29.92 | 0.00 | 2 | NW | 6 | |
| Nottingham | PA | 2026-05-03 04:40 | DEOS | 42 | 29 | 62 | 29.92 | 0.00 | 3 | NW | 7 | |
| Nottingham | PA | 2026-05-03 04:30 | DEOS | 41 | 30 | 64 | 29.92 | 0.00 | 3 | NW | 7 | |
| Nottingham | PA | 2026-05-03 03:55 | DEOS | 40 | 30 | 68 | 29.91 | 0.00 | 2 | WNW | 6 | |
| Nottingham | PA | 2026-05-03 04:25 | DEOS | 41 | 30 | 64 | 29.92 | 0.00 | 2 | NW | 9 | |
| Nottingham | PA | 2026-05-03 04:20 | DEOS | 41 | 30 | 65 | 29.91 | 0.00 | 2 | NW | 6 | |
| Nottingham | PA | 2026-05-03 04:15 | DEOS | 41 | 30 | 65 | 29.91 | 0.00 | 2 | NW | 5 | |
| Nottingham | PA | 2026-05-03 04:10 | DEOS | 40 | 30 | 66 | 29.91 | 0.00 | 3 | WNW | 6 | |
| Nottingham | PA | 2026-05-03 04:05 | DEOS | 40 | 30 | 67 | 29.91 | 0.00 | 3 | WNW | 6 | |
| Nottingham | PA | 2026-05-03 04:00 | DEOS | 40 | 30 | 67 | 29.91 | 0.00 | 2 | NW | 6 | |
| Nottingham | PA | 2026-05-03 02:25 | DEOS | 41 | 30 | 65 | 29.91 | 0.00 | 2 | WNW | 4 | |
| Nottingham | PA | 2026-05-03 02:15 | DEOS | 41 | 30 | 65 | 29.90 | 0.00 | 2 | WNW | 3 | |
| Nottingham | PA | 2026-05-03 05:15 | DEOS | 42 | 29 | 60 | 29.92 | 0.00 | 3 | NW | 9 | |
| Nottingham | PA | 2026-05-03 00:05 | DEOS | 46 | 29 | 53 | 29.94 | 0.00 | 2 | NW | 6 | |
| Nottingham | PA | 2026-05-03 00:35 | DEOS | 44 | 29 | 56 | 29.93 | 0.00 | 2 | N | 7 | |
| Nottingham | PA | 2026-05-03 00:30 | DEOS | 44 | 29 | 55 | 29.91 | 0.00 | 1 | NNW | 4 | |
| Nottingham | PA | 2026-05-03 00:25 | DEOS | 45 | 29 | 54 | 29.94 | 0.00 | 2 | NW | 5 | |
| Nottingham | PA | 2026-05-03 00:20 | DEOS | 45 | 29 | 55 | 29.91 | 0.00 | 1 | NNW | 4 | |
| Nottingham | PA | 2026-05-03 00:15 | DEOS | 45 | 29 | 54 | 29.94 | 0.00 | 1 | NNW | 5 | |
| Nottingham | PA | 2026-05-03 00:10 | DEOS | 45 | 29 | 53 | 29.92 | 0.00 | 2 | NNW | 4 | |
| Nottingham | PA | 2026-05-03 00:00 | DEOS | 46 | 30 | 53 | 29.94 | 0.00 | 1 | NW | 4 | |
| Nottingham | PA | 2026-05-03 00:45 | DEOS | 44 | 29 | 57 | 29.93 | 0.00 | 2 | NNW | 5 | |
| Nottingham | PA | 2026-05-02 23:55 | DEOS | 46 | 30 | 53 | 29.94 | 0.00 | 2 | NW | 8 | |
| Nottingham | PA | 2026-05-02 23:50 | DEOS | 46 | 30 | 52 | 29.92 | 0.00 | 2 | NW | 6 | |
| Nottingham | PA | 2026-05-02 23:45 | DEOS | 47 | 30 | 52 | 29.92 | 0.00 | 2 | NW | 6 | |
| Nottingham | PA | 2026-05-02 23:40 | DEOS | 47 | 30 | 51 | 29.92 | 0.00 | 2 | NNW | 6 | |
| Nottingham | PA | 2026-05-02 23:35 | DEOS | 47 | 30 | 51 | 29.92 | 0.00 | 3 | NW | 7 | |
| Nottingham | PA | 2026-05-02 23:30 | DEOS | 47 | 30 | 51 | 29.92 | 0.00 | 3 | NW | 8 | |
| Nottingham | PA | 2026-05-03 00:40 | DEOS | 44 | 29 | 57 | 29.93 | 0.00 | 1 | N | 5 | |
| Nottingham | PA | 2026-05-03 00:50 | DEOS | 44 | 29 | 57 | 29.91 | 0.00 | 1 | NW | 5 | |
| Nottingham | PA | 2026-05-03 02:10 | DEOS | 42 | 30 | 64 | 29.90 | 0.00 | 2 | WNW | 5 | |
| Nottingham | PA | 2026-05-03 01:35 | DEOS | 42 | 30 | 63 | 29.90 | 0.00 | 2 | NE | 6 | |
| Nottingham | PA | 2026-05-03 02:05 | DEOS | 42 | 30 | 63 | 29.89 | 0.00 | 1 | WNW | 4 | |
| Nottingham | PA | 2026-05-03 02:00 | DEOS | 42 | 30 | 63 | 29.90 | 0.00 | 1 | NNW | 5 | |
| Nottingham | PA | 2026-05-03 01:55 | DEOS | 42 | 30 | 63 | 29.88 | 0.00 | 2 | NNW | 4 | |
| Nottingham | PA | 2026-05-03 01:50 | DEOS | 42 | 30 | 62 | 29.90 | 0.00 | 1 | N | 4 | |
| Nottingham | PA | 2026-05-03 01:45 | DEOS | 42 | 30 | 62 | 29.88 | 0.00 | 2 | N | 5 | |
| Nottingham | PA | 2026-05-03 01:40 | DEOS | 42 | 30 | 62 | 29.90 | 0.00 | 2 | NNE | 5 | |
| Nottingham | PA | 2026-05-03 01:30 | DEOS | 42 | 30 | 62 | 29.91 | 0.00 | 1 | NNE | 3 | |
| Nottingham | PA | 2026-05-03 00:55 | DEOS | 43 | 29 | 58 | 29.91 | 0.00 | 1 | NNW | 4 | |
| Nottingham | PA | 2026-05-03 01:25 | DEOS | 42 | 30 | 62 | 29.91 | 0.00 | 1 | NNW | 2 | |
| Nottingham | PA | 2026-05-03 01:20 | DEOS | 42 | 30 | 61 | 29.91 | 0.00 | 1 | NNW | 2 | |
| Nottingham | PA | 2026-05-03 01:15 | DEOS | 42 | 30 | 61 | 29.91 | 0.00 | 2 | NNW | 4 | |
| Nottingham | PA | 2026-05-03 01:10 | DEOS | 42 | 30 | 60 | 29.93 | 0.00 | 0 | N | 3 | |
| Nottingham | PA | 2026-05-03 01:05 | DEOS | 43 | 29 | 59 | 29.93 | 0.00 | 1 | NNW | 4 | |
| Nottingham | PA | 2026-05-03 01:00 | DEOS | 43 | 29 | 58 | 29.92 | 0.00 | 1 | N | 2 | |
| Nottingham | PA | 2026-05-03 05:10 | DEOS | 42 | 29 | 61 | 29.93 | 0.00 | 2 | WNW | 8 | |
| Nottingham | PA | 2026-05-03 05:20 | DEOS | 42 | 29 | 61 | 29.92 | 0.00 | 2 | WNW | 4 | |
| Nottingham | PA | 2026-05-03 11:15 | DEOS | 49 | 23 | 35 | 30.01 | 0.00 | 5 | NW | 13 | |
| Nottingham | PA | 2026-05-03 09:10 | DEOS | 45 | 25 | 45 | 29.98 | 0.00 | 5 | NNW | 11 | |
| Nottingham | PA | 2026-05-03 09:40 | DEOS | 46 | 25 | 44 | 30.01 | 0.00 | 5 | NNW | 16 | |
| Nottingham | PA | 2026-05-03 09:35 | DEOS | 46 | 25 | 44 | 29.99 | 0.00 | 5 | NW | 12 | |
| Nottingham | PA | 2026-05-03 09:30 | DEOS | 45 | 25 | 44 | 30.01 | 0.00 | 7 | N | 16 | |
| Nottingham | PA | 2026-05-03 09:25 | DEOS | 46 | 25 | 45 | 30.01 | 0.00 | 5 | NNW | 13 | |
| Nottingham | PA | 2026-05-03 09:20 | DEOS | 45 | 25 | 45 | 29.99 | 0.00 | 5 | NW | 13 | |
| Nottingham | PA | 2026-05-03 09:15 | DEOS | 45 | 25 | 45 | 29.99 | 0.00 | 6 | NW | 14 | |
| Nottingham | PA | 2026-05-03 09:05 | DEOS | 45 | 25 | 45 | 30.01 | 0.00 | 6 | NW | 16 | |
| Nottingham | PA | 2026-05-03 09:50 | DEOS | 46 | 25 | 44 | 29.99 | 0.00 | 4 | NNW | 11 | |
| Nottingham | PA | 2026-05-03 09:00 | DEOS | 45 | 25 | 46 | 30.00 | 0.00 | 5 | NW | 11 | |
| Nottingham | PA | 2026-05-03 08:55 | DEOS | 45 | 26 | 46 | 29.98 | 0.00 | 5 | NNW | 19 | |
| Nottingham | PA | 2026-05-03 08:50 | DEOS | 44 | 26 | 47 | 29.98 | 0.00 | 3 | NW | 9 | |
| Nottingham | PA | 2026-05-03 08:45 | DEOS | 45 | 26 | 47 | 30.00 | 0.00 | 4 | NNW | 11 | |
| Nottingham | PA | 2026-05-03 08:40 | DEOS | 44 | 26 | 48 | 29.98 | 0.00 | 4 | NW | 8 | |
| Nottingham | PA | 2026-05-03 08:35 | DEOS | 44 | 25 | 48 | 29.98 | 0.00 | 4 | NW | 11 | |
| Nottingham | PA | 2026-05-03 09:45 | DEOS | 46 | 25 | 44 | 30.01 | 0.00 | 5 | NNW | 14 | |
| Nottingham | PA | 2026-05-03 09:55 | DEOS | 45 | 25 | 45 | 30.01 | 0.00 | 4 | N | 13 | |
| Nottingham | PA | 2026-05-03 08:25 | DEOS | 43 | 25 | 49 | 29.98 | 0.00 | 5 | NW | 11 | |
| Nottingham | PA | 2026-05-03 10:40 | DEOS | 48 | 26 | 41 | 29.99 | 0.00 | 4 | NNW | 9 | |
| Nottingham | PA | 2026-05-03 11:10 | DEOS | 49 | 23 | 36 | 29.99 | 0.00 | 6 | NNW | 16 | |
| Nottingham | PA | 2026-05-03 11:05 | DEOS | 49 | 23 | 36 | 30.01 | 0.00 | 5 | NW | 11 | |
| Nottingham | PA | 2026-05-03 11:00 | DEOS | 48 | 23 | 37 | 29.99 | 0.00 | 6 | NW | 16 | |
| Nottingham | PA | 2026-05-03 10:55 | DEOS | 49 | 25 | 38 | 29.99 | 0.00 | 4 | NW | 11 | |
| Nottingham | PA | 2026-05-03 10:50 | DEOS | 48 | 25 | 40 | 29.99 | 0.00 | 4 | NW | 11 | |
| Nottingham | PA | 2026-05-03 10:45 | DEOS | 49 | 26 | 41 | 29.99 | 0.00 | 3 | NW | 9 | |
| Nottingham | PA | 2026-05-03 10:35 | DEOS | 47 | 25 | 41 | 29.99 | 0.00 | 6 | NW | 15 | |
| Nottingham | PA | 2026-05-03 10:00 | DEOS | 46 | 26 | 45 | 29.99 | 0.00 | 5 | NW | 11 | |
| Nottingham | PA | 2026-05-03 10:30 | DEOS | 48 | 26 | 43 | 29.99 | 0.00 | 4 | NW | 11 | |
| Nottingham | PA | 2026-05-03 10:25 | DEOS | 47 | 25 | 43 | 29.99 | 0.00 | 4 | NW | 12 | |
| Nottingham | PA | 2026-05-03 10:20 | DEOS | 47 | 26 | 43 | 30.01 | 0.00 | 4 | NW | 10 | |
| Nottingham | PA | 2026-05-03 10:15 | DEOS | 47 | 26 | 43 | 30.02 | 0.00 | 4 | NW | 12 | |
| Nottingham | PA | 2026-05-03 10:10 | DEOS | 47 | 25 | 43 | 30.01 | 0.00 | 5 | NW | 11 | |
| Nottingham | PA | 2026-05-03 10:05 | DEOS | 46 | 26 | 44 | 30.01 | 0.00 | 4 | NW | 12 | |
| Nottingham | PA | 2026-05-03 08:30 | DEOS | 44 | 25 | 48 | 29.99 | 0.00 | 4 | NW | 11 | |
| Nottingham | PA | 2026-05-03 08:20 | DEOS | 43 | 25 | 48 | 29.98 | 0.00 | 4 | NW | 10 | |
| Nottingham | PA | 2026-05-03 05:25 | DEOS | 42 | 29 | 62 | 29.93 | 0.00 | 2 | WNW | 4 | |
| Nottingham | PA | 2026-05-03 06:05 | DEOS | 42 | 30 | 62 | 29.94 | 0.00 | 1 | NW | 2 | |
| Nottingham | PA | 2026-05-03 06:35 | DEOS | 42 | 29 | 60 | 29.96 | 0.00 | 2 | NW | 5 | |
| Nottingham | PA | 2026-05-03 06:30 | DEOS | 42 | 29 | 60 | 29.94 | 0.00 | 2 | NW | 4 | |
| Nottingham | PA | 2026-05-03 06:25 | DEOS | 42 | 29 | 61 | 29.94 | 0.00 | 2 | NW | 5 | |
| Nottingham | PA | 2026-05-03 06:20 | DEOS | 42 | 29 | 62 | 29.94 | 0.00 | 2 | NW | 5 | |
| Nottingham | PA | 2026-05-03 06:15 | DEOS | 42 | 29 | 62 | 29.94 | 0.00 | 2 | NW | 5 | |
| Nottingham | PA | 2026-05-03 06:10 | DEOS | 42 | 30 | 62 | 29.94 | 0.00 | 2 | NW | 4 | |
| Nottingham | PA | 2026-05-03 06:00 | DEOS | 41 | 29 | 62 | 29.94 | 0.00 | 2 | NW | 4 | |
| Nottingham | PA | 2026-05-03 06:45 | DEOS | 42 | 28 | 57 | 29.95 | 0.00 | 3 | NW | 5 | |
| Nottingham | PA | 2026-05-03 05:55 | DEOS | 41 | 29 | 62 | 29.93 | 0.00 | 2 | NW | 5 | |
| Nottingham | PA | 2026-05-03 05:50 | DEOS | 41 | 29 | 63 | 29.93 | 0.00 | 2 | NW | 4 | |
| Nottingham | PA | 2026-05-03 05:45 | DEOS | 41 | 29 | 63 | 29.93 | 0.00 | 2 | NW | 4 | |
| Nottingham | PA | 2026-05-03 05:40 | DEOS | 41 | 30 | 63 | 29.93 | 0.00 | 1 | WNW | 3 | |
| Nottingham | PA | 2026-05-03 05:35 | DEOS | 41 | 30 | 63 | 29.94 | 0.00 | 1 | NW | 3 | |
| Nottingham | PA | 2026-05-03 05:30 | DEOS | 41 | 30 | 63 | 29.93 | 0.00 | 1 | NW | 3 | |
| Nottingham | PA | 2026-05-03 06:40 | DEOS | 42 | 29 | 59 | 29.95 | 0.00 | 3 | NW | 7 | |
| Nottingham | PA | 2026-05-03 06:50 | DEOS | 42 | 28 | 57 | 29.96 | 0.00 | 2 | NW | 5 | |
| Nottingham | PA | 2026-05-03 08:15 | DEOS | 43 | 26 | 50 | 30.00 | 0.00 | 4 | NNW | 12 | |
| Nottingham | PA | 2026-05-03 07:40 | DEOS | 42 | 26 | 53 | 29.97 | 0.00 | 3 | NW | 7 | |
| Nottingham | PA | 2026-05-03 08:10 | DEOS | 43 | 26 | 50 | 30.00 | 0.00 | 4 | NW | 10 | |
| Nottingham | PA | 2026-05-03 08:05 | DEOS | 42 | 26 | 51 | 29.99 | 0.00 | 3 | NW | 6 | |
| Nottingham | PA | 2026-05-03 08:00 | DEOS | 42 | 26 | 52 | 29.99 | 0.00 | 2 | NW | 5 | |
| Nottingham | PA | 2026-05-03 07:55 | DEOS | 41 | 26 | 53 | 29.99 | 0.00 | 2 | NW | 4 | |
| Nottingham | PA | 2026-05-03 07:50 | DEOS | 41 | 26 | 54 | 29.98 | 0.00 | 3 | NW | 8 | |
| Nottingham | PA | 2026-05-03 07:45 | DEOS | 42 | 26 | 53 | 29.99 | 0.00 | 3 | WNW | 7 | |
| Nottingham | PA | 2026-05-03 07:35 | DEOS | 42 | 26 | 53 | 29.99 | 0.00 | 3 | NW | 10 | |
| Nottingham | PA | 2026-05-03 06:55 | DEOS | 42 | 28 | 57 | 29.97 | 0.00 | 2 | NW | 6 | |
| Nottingham | PA | 2026-05-03 07:30 | DEOS | 42 | 26 | 53 | 29.97 | 0.00 | 4 | WNW | 10 | |
| Nottingham | PA | 2026-05-03 07:25 | DEOS | 43 | 27 | 53 | 29.97 | 0.00 | 3 | NW | 6 | |
| Nottingham | PA | 2026-05-03 07:20 | DEOS | 43 | 27 | 53 | 29.96 | 0.00 | 3 | WNW | 8 | |
| Nottingham | PA | 2026-05-03 07:15 | DEOS | 42 | 27 | 53 | 29.96 | 0.00 | 3 | NW | 10 | |
| Nottingham | PA | 2026-05-03 07:10 | DEOS | 42 | 27 | 54 | 29.97 | 0.00 | 3 | NW | 7 | |
| Nottingham | PA | 2026-05-03 07:05 | DEOS | 42 | 27 | 55 | 29.96 | 0.00 | 4 | NW | 9 | |
| Nottingham | PA | 2026-05-03 07:00 | DEOS | 42 | 28 | 56 | 29.97 | 0.00 | 3 | NW | 6 | |
| Nottingham | PA | 2026-05-03 23:15 | DEOS | 44 | 53 | 29.97 | 0.00 | 0 | SSE | 1 |
data collection created in 0.054988861083984 (queried in 0.010660) rendered in: 0.00085115432739258

